Time;durP1;ratioP1;P1;durP2;ratioP2;P2;SDS_P1;SDS_P2;PMS_P1;PMS_P2;Temp;Humidity;BMP_temperature;BMP_pressure;BME280_temperature;BME280_humidity;BME280_pressure;Samples;Min_cycle;Max_cycle;Signal;HPM_P1;HPM_P2
2023/10/27 00:02:14;;;;;;;3.40;1.90;;;10.00;99.90;;;;;;5006847;28;20501;-60
2023/10/27 00:04:42;;;;;;;2.23;1.77;;;10.00;99.90;;;;;;5015671;28;20475;-59
2023/10/27 00:07:10;;;;;;;1.90;1.80;;;10.00;99.90;;;;;;5010578;28;20476;-60
2023/10/27 00:09:39;;;;;;;1.80;1.70;;;9.90;99.90;;;;;;5015716;28;20494;-60
2023/10/27 00:12:08;;;;;;;1.70;1.60;;;10.00;99.90;;;;;;5017983;28;21101;-60
2023/10/27 00:14:37;;;;;;;1.80;1.70;;;10.00;99.90;;;;;;5010880;28;20464;-59
2023/10/27 00:17:05;;;;;;;2.20;2.00;;;10.00;99.90;;;;;;5011502;28;20471;-58
2023/10/27 00:19:33;;;;;;;2.87;2.30;;;10.00;99.90;;;;;;5016405;28;20499;-60
2023/10/27 00:22:02;;;;;;;3.57;3.27;;;10.00;99.90;;;;;;5012343;28;20502;-60
2023/10/27 00:24:30;;;;;;;2.70;2.00;;;10.00;99.90;;;;;;5013874;28;20866;-61
2023/10/27 00:26:58;;;;;;;2.40;2.20;;;10.10;99.90;;;;;;5011181;28;21150;-60
2023/10/27 00:29:26;;;;;;;2.40;1.80;;;10.00;99.90;;;;;;5011817;28;20495;-60
2023/10/27 00:31:55;;;;;;;3.53;2.47;;;10.00;99.90;;;;;;5012338;28;20942;-59
2023/10/27 00:34:23;;;;;;;2.30;1.90;;;10.00;99.90;;;;;;5010725;28;20468;-60
2023/10/27 00:36:51;;;;;;;2.87;2.20;;;10.00;99.90;;;;;;5011850;28;20598;-60
2023/10/27 00:39:19;;;;;;;2.20;1.97;;;10.00;99.90;;;;;;5011167;28;21036;-60
2023/10/27 00:41:47;;;;;;;2.83;1.80;;;10.00;99.90;;;;;;5011102;28;20865;-59
2023/10/27 00:44:15;;;;;;;2.30;2.10;;;10.00;99.90;;;;;;5012407;28;20547;-59
2023/10/27 00:46:44;;;;;;;2.60;2.40;;;10.00;99.90;;;;;;5008114;28;20557;-59
2023/10/27 00:49:14;;;;;;;2.00;1.80;;;10.00;99.90;;;;;;5011098;28;20500;-59
2023/10/27 00:51:46;;;;;;;2.20;2.00;;;10.00;99.90;;;;;;5011353;28;20499;-59
2023/10/27 00:54:15;;;;;;;2.20;2.00;;;10.00;99.90;;;;;;5003139;28;20594;-60
2023/10/27 00:56:44;;;;;;;2.60;2.37;;;10.10;99.90;;;;;;5014422;28;20589;-58
2023/10/27 00:59:13;;;;;;;2.37;2.17;;;10.00;99.90;;;;;;5007755;28;20523;-60
2023/10/27 01:01:43;;;;;;;2.23;2.03;;;10.00;99.90;;;;;;5008813;28;20492;-60
2023/10/27 01:04:12;;;;;;;2.40;2.20;;;10.00;99.90;;;;;;5010889;28;20705;-60
2023/10/27 01:06:41;;;;;;;2.40;1.93;;;10.00;99.90;;;;;;5012909;28;20553;-60
2023/10/27 01:09:09;;;;;;;2.73;2.53;;;10.00;99.90;;;;;;5011208;28;20937;-60
2023/10/27 01:11:38;;;;;;;2.43;2.20;;;10.00;99.90;;;;;;5009355;28;20914;-60
2023/10/27 01:14:05;;;;;;;2.20;2.00;;;10.00;99.90;;;;;;5007642;28;20541;-59
2023/10/27 01:16:33;;;;;;;4.37;2.10;;;10.00;99.90;;;;;;5008497;28;20922;-59
2023/10/27 01:19:01;;;;;;;2.13;1.90;;;10.00;99.90;;;;;;5014707;28;20495;-62
2023/10/27 01:21:31;;;;;;;2.23;2.03;;;10.00;99.90;;;;;;5012529;28;20487;-60
2023/10/27 01:24:02;;;;;;;2.63;1.77;;;10.00;99.90;;;;;;5009813;28;20491;-60
2023/10/27 01:26:30;;;;;;;2.17;2.00;;;10.00;99.90;;;;;;5006821;28;20527;-60
2023/10/27 01:28:58;;;;;;;2.10;1.90;;;10.00;99.90;;;;;;5004365;28;21091;-59
2023/10/27 01:31:27;;;;;;;1.70;1.60;;;10.00;99.90;;;;;;5008862;28;20500;-60
2023/10/27 01:33:54;;;;;;;1.83;1.73;;;10.00;99.90;;;;;;5012335;28;20467;-60
2023/10/27 01:36:23;;;;;;;2.17;1.70;;;10.00;99.90;;;;;;5017348;28;20471;-59
2023/10/27 01:38:51;;;;;;;1.97;1.50;;;10.00;99.90;;;;;;5006092;28;21020;-59
2023/10/27 01:41:20;;;;;;;3.07;2.10;;;9.90;99.90;;;;;;5009434;28;20475;-59
2023/10/27 01:43:48;;;;;;;1.90;1.63;;;9.90;99.90;;;;;;5012737;28;20618;-60
2023/10/27 01:46:16;;;;;;;2.43;1.67;;;10.00;99.90;;;;;;5010003;28;20562;-59
2023/10/27 01:48:44;;;;;;;4.00;1.83;;;9.90;99.90;;;;;;5010941;28;20492;-59
2023/10/27 01:51:12;;;;;;;1.90;1.40;;;10.00;99.90;;;;;;5015925;28;20479;-60
2023/10/27 01:53:40;;;;;;;1.57;1.43;;;10.00;99.90;;;;;;5015784;28;20558;-60
2023/10/27 01:56:08;;;;;;;1.50;1.40;;;10.00;99.90;;;;;;5011894;28;20579;-59
2023/10/27 01:58:40;;;;;;;1.63;1.50;;;10.00;99.90;;;;;;5010547;28;20554;-59
2023/10/27 02:01:08;;;;;;;1.30;1.20;;;10.00;99.90;;;;;;5010155;28;20678;-59
2023/10/27 02:03:35;;;;;;;1.93;1.83;;;10.00;99.90;;;;;;5016002;28;20569;-60
2023/10/27 02:06:04;;;;;;;1.53;1.43;;;9.90;99.90;;;;;;5009489;28;20479;-60
2023/10/27 02:08:32;;;;;;;1.30;1.20;;;9.90;99.90;;;;;;5009551;28;20475;-60
2023/10/27 02:11:01;;;;;;;2.60;1.47;;;9.90;99.90;;;;;;5015672;28;20484;-60
2023/10/27 02:13:29;;;;;;;1.60;1.50;;;9.90;99.90;;;;;;5013904;28;20566;-59
2023/10/27 02:15:58;;;;;;;1.90;1.40;;;9.90;99.90;;;;;;5006549;28;20562;-60
2023/10/27 02:18:26;;;;;;;1.67;1.57;;;9.90;99.90;;;;;;5014061;28;20472;-60
2023/10/27 02:20:55;;;;;;;2.23;1.37;;;9.90;99.90;;;;;;5014043;28;20487;-60
2023/10/27 02:23:25;;;;;;;1.20;1.10;;;9.90;99.90;;;;;;5008151;28;20472;-60
2023/10/27 02:25:54;;;;;;;1.10;1.00;;;9.90;99.90;;;;;;5011066;28;20472;-60
2023/10/27 02:28:22;;;;;;;1.70;1.60;;;9.90;99.90;;;;;;5006691;28;20471;-59
2023/10/27 02:30:50;;;;;;;1.80;1.40;;;9.90;99.90;;;;;;5012424;28;20483;-59
2023/10/27 02:33:19;;;;;;;1.57;1.20;;;9.90;99.90;;;;;;5016330;28;20472;-60
2023/10/27 02:35:47;;;;;;;2.30;1.40;;;9.90;99.90;;;;;;5014060;28;20556;-59
2023/10/27 02:38:15;;;;;;;1.63;1.53;;;9.90;99.90;;;;;;5006633;28;20566;-59
2023/10/27 02:40:43;;;;;;;1.70;1.07;;;9.80;99.90;;;;;;5013098;28;20570;-60
2023/10/27 02:43:12;;;;;;;1.43;1.17;;;9.90;99.90;;;;;;5018777;28;20850;-60
2023/10/27 02:45:42;;;;;;;4.20;1.30;;;9.90;99.90;;;;;;5015080;28;20495;-60
2023/10/27 02:48:10;;;;;;;1.63;1.20;;;9.90;99.90;;;;;;5016088;28;20479;-60
2023/10/27 02:50:39;;;;;;;1.40;1.30;;;9.90;99.90;;;;;;5024855;28;20480;-60
2023/10/27 02:53:09;;;;;;;1.93;1.40;;;9.90;99.90;;;;;;5016502;28;20476;-58
2023/10/27 02:55:37;;;;;;;2.07;1.20;;;9.80;99.90;;;;;;5015906;28;21062;-60
2023/10/27 02:58:05;;;;;;;1.40;1.30;;;9.80;99.90;;;;;;5015914;28;20550;-60
2023/10/27 03:00:33;;;;;;;1.70;1.40;;;9.80;99.90;;;;;;5017088;28;20566;-59
2023/10/27 03:03:01;;;;;;;2.47;1.30;;;9.80;99.90;;;;;;5008542;28;20577;-60
2023/10/27 03:05:29;;;;;;;1.37;1.27;;;9.80;99.90;;;;;;5015879;28;20879;-60
2023/10/27 03:07:59;;;;;;;1.30;1.20;;;9.80;99.90;;;;;;5008670;28;20470;-60
2023/10/27 03:10:26;;;;;;;1.40;1.00;;;9.80;99.90;;;;;;5017518;28;20497;-60
2023/10/27 03:12:55;;;;;;;1.50;1.40;;;9.80;99.90;;;;;;5011010;28;20818;-59
2023/10/27 03:15:23;;;;;;;1.50;1.40;;;9.90;99.90;;;;;;5005890;28;20549;-60
2023/10/27 03:17:51;;;;;;;1.40;1.30;;;9.80;99.90;;;;;;5009168;28;20471;-60
2023/10/27 03:20:19;;;;;;;1.70;1.60;;;9.80;99.90;;;;;;5002191;28;20491;-59
2023/10/27 03:22:47;;;;;;;2.23;1.60;;;9.80;99.90;;;;;;5007527;28;20560;-60
2023/10/27 03:25:16;;;;;;;1.73;1.60;;;9.80;99.90;;;;;;5010876;28;20520;-60
2023/10/27 03:27:44;;;;;;;1.63;1.40;;;9.80;99.90;;;;;;5016378;28;20906;-60
2023/10/27 03:30:13;;;;;;;2.37;1.70;;;9.80;99.90;;;;;;5010961;28;20494;-60
2023/10/27 03:32:41;;;;;;;3.20;1.80;;;9.80;99.90;;;;;;5011026;28;20585;-58
2023/10/27 03:35:09;;;;;;;1.60;1.50;;;9.80;99.90;;;;;;5014087;28;20556;-60
2023/10/27 03:37:37;;;;;;;2.53;1.57;;;9.80;99.90;;;;;;5015932;28;20482;-59
2023/10/27 03:40:07;;;;;;;1.90;1.70;;;9.70;99.90;;;;;;5019625;28;20574;-59
2023/10/27 03:42:36;;;;;;;1.90;1.70;;;9.70;99.90;;;;;;5022946;28;20597;-60
2023/10/27 03:45:05;;;;;;;2.03;1.83;;;9.70;99.90;;;;;;5018695;28;20530;-59
2023/10/27 03:47:33;;;;;;;1.70;1.60;;;9.70;99.90;;;;;;5022789;28;20976;-60
2023/10/27 03:50:01;;;;;;;2.60;1.77;;;9.80;99.90;;;;;;5019420;28;20893;-58
2023/10/27 03:52:29;;;;;;;2.30;2.10;;;9.80;99.90;;;;;;5014580;28;20533;-59
2023/10/27 03:54:57;;;;;;;2.00;1.70;;;9.80;99.90;;;;;;5007412;28;20475;-58
2023/10/27 03:57:25;;;;;;;1.87;1.70;;;9.80;99.90;;;;;;5011519;28;20509;-59
2023/10/27 03:59:54;;;;;;;2.40;2.10;;;9.90;99.90;;;;;;5015435;28;20521;-60
2023/10/27 04:02:22;;;;;;;2.00;1.70;;;9.90;99.90;;;;;;5016663;28;20660;-60
2023/10/27 04:04:51;;;;;;;2.33;1.97;;;9.80;99.90;;;;;;5018750;28;20494;-60
2023/10/27 04:07:19;;;;;;;2.30;2.10;;;9.80;99.90;;;;;;5020879;28;20495;-60
2023/10/27 04:09:47;;;;;;;2.10;1.80;;;9.80;99.90;;;;;;5006679;28;20484;-59
2023/10/27 04:12:15;;;;;;;3.70;2.00;;;9.70;99.90;;;;;;5008759;28;20624;-59
2023/10/27 04:14:43;;;;;;;2.83;2.50;;;9.70;99.90;;;;;;5016928;28;20467;-60
2023/10/27 04:17:13;;;;;;;2.10;1.90;;;9.70;99.90;;;;;;5019366;28;20553;-60
2023/10/27 04:19:43;;;;;;;2.40;2.20;;;9.60;99.90;;;;;;5013517;28;21011;-60
2023/10/27 04:22:11;;;;;;;2.30;1.83;;;9.60;99.90;;;;;;5012701;28;20495;-60
2023/10/27 04:24:39;;;;;;;2.30;2.10;;;9.60;99.90;;;;;;5012708;28;20682;-60
2023/10/27 04:27:07;;;;;;;2.47;2.10;;;9.60;99.90;;;;;;5018280;28;20555;-60
2023/10/27 04:29:36;;;;;;;2.10;1.90;;;9.60;99.90;;;;;;5011310;28;20497;-60
2023/10/27 04:32:05;;;;;;;1.90;1.80;;;9.60;99.90;;;;;;5005053;28;20495;-59
2023/10/27 04:34:34;;;;;;;2.13;1.90;;;9.50;99.90;;;;;;5026586;28;20539;-60
2023/10/27 04:37:02;;;;;;;2.77;1.90;;;9.50;99.90;;;;;;5021443;28;20978;-60
2023/10/27 04:39:30;;;;;;;3.33;1.77;;;9.50;99.90;;;;;;5009609;28;20491;-59
2023/10/27 04:41:58;;;;;;;2.50;2.00;;;9.50;99.90;;;;;;5000016;28;20645;-59
2023/10/27 04:44:26;;;;;;;1.90;1.50;;;9.50;99.90;;;;;;5006405;28;20479;-59
2023/10/27 04:46:54;;;;;;;1.90;1.70;;;9.50;99.90;;;;;;5012421;28;20583;-60
2023/10/27 04:49:22;;;;;;;1.70;1.40;;;9.40;99.90;;;;;;5017384;28;20516;-59
2023/10/27 04:51:51;;;;;;;1.83;1.60;;;9.50;99.90;;;;;;5011842;28;20898;-60
2023/10/27 04:54:19;;;;;;;1.97;1.47;;;9.50;99.90;;;;;;5018765;28;20570;-60
2023/10/27 04:56:47;;;;;;;1.57;1.47;;;9.50;99.90;;;;;;5015717;28;21079;-59
2023/10/27 04:59:15;;;;;;;1.93;1.33;;;9.50;99.90;;;;;;5013370;28;20493;-60
2023/10/27 05:01:43;;;;;;;1.40;1.30;;;9.50;99.90;;;;;;5013898;28;20496;-60
2023/10/27 05:04:11;;;;;;;2.80;1.57;;;9.50;99.90;;;;;;5015733;28;20476;-59
2023/10/27 05:06:39;;;;;;;1.77;1.37;;;9.50;99.90;;;;;;5012226;28;20510;-60
2023/10/27 05:09:10;;;;;;;1.77;1.40;;;9.50;99.90;;;;;;5016547;28;21174;-59
2023/10/27 05:11:41;;;;;;;3.33;1.30;;;9.50;99.90;;;;;;5000924;28;20494;-60
2023/10/27 05:14:09;;;;;;;2.23;1.30;;;9.50;99.90;;;;;;4999045;28;20570;-59
2023/10/27 05:16:37;;;;;;;1.63;1.47;;;9.50;99.90;;;;;;5003570;28;20464;-60
2023/10/27 05:19:05;;;;;;;1.90;1.37;;;9.40;99.90;;;;;;4997479;28;20494;-60
2023/10/27 05:21:33;;;;;;;1.77;1.60;;;9.50;99.90;;;;;;4997706;28;20482;-60
2023/10/27 05:24:02;;;;;;;1.50;1.40;;;9.50;99.90;;;;;;5007516;28;20486;-60
2023/10/27 05:26:32;;;;;;;1.27;1.17;;;9.50;99.90;;;;;;5002619;28;20494;-60
2023/10/27 05:29:00;;;;;;;2.17;1.43;;;9.40;99.90;;;;;;5003054;28;20503;-59
2023/10/27 05:31:28;;;;;;;1.57;1.47;;;9.40;99.90;;;;;;5005815;28;20490;-59
2023/10/27 05:33:56;;;;;;;3.53;1.30;;;9.50;99.90;;;;;;4996125;28;20529;-60
2023/10/27 05:36:24;;;;;;;2.10;1.90;;;9.50;99.90;;;;;;5007675;28;20474;-60
2023/10/27 05:38:52;;;;;;;1.67;1.57;;;9.50;99.90;;;;;;5007110;28;20490;-60
2023/10/27 05:41:20;;;;;;;1.83;1.47;;;9.50;99.90;;;;;;5007110;28;20514;-60
2023/10/27 05:43:50;;;;;;;2.67;1.70;;;9.50;99.90;;;;;;5013418;28;20539;-60
2023/10/27 05:46:18;;;;;;;1.67;1.17;;;9.50;99.90;;;;;;5013112;28;20574;-61
2023/10/27 05:48:46;;;;;;;1.67;1.57;;;9.50;99.90;;;;;;4996037;28;20633;-60
2023/10/27 05:51:15;;;;;;;2.17;1.57;;;9.50;99.90;;;;;;5000550;28;20496;-59
2023/10/27 05:53:43;;;;;;;1.40;1.30;;;9.50;99.90;;;;;;4994818;28;20478;-59
2023/10/27 05:56:11;;;;;;;2.90;1.57;;;9.40;99.90;;;;;;4988962;28;26677;-60
2023/10/27 05:58:39;;;;;;;1.97;1.60;;;9.50;99.90;;;;;;5005842;28;20500;-59
2023/10/27 06:01:08;;;;;;;1.40;1.30;;;9.50;99.90;;;;;;5003980;28;20496;-59
2023/10/27 06:03:36;;;;;;;2.00;1.60;;;9.40;99.90;;;;;;5001367;28;20475;-60
2023/10/27 06:06:05;;;;;;;2.93;1.90;;;9.40;99.90;;;;;;4999847;28;21200;-60
2023/10/27 06:08:39;;;;;;;2.17;1.80;;;9.50;99.90;;;;;;4995297;28;20475;-60
2023/10/27 06:11:07;;;;;;;2.10;1.53;;;9.40;99.90;;;;;;5004425;28;20493;-60
2023/10/27 06:13:35;;;;;;;3.03;2.80;;;9.40;99.90;;;;;;5007485;28;20475;-59
2023/10/27 06:16:03;;;;;;;2.10;1.70;;;9.40;99.90;;;;;;5015920;28;21014;-59
2023/10/27 06:18:33;;;;;;;2.30;1.80;;;9.40;99.90;;;;;;5011899;28;20524;-59
2023/10/27 06:21:01;;;;;;;1.57;1.47;;;9.40;99.90;;;;;;5011712;28;20524;-60
2023/10/27 06:23:29;;;;;;;1.80;1.70;;;9.40;99.90;;;;;;5011391;28;21008;-59
2023/10/27 06:25:57;;;;;;;2.70;1.90;;;9.40;99.90;;;;;;5012641;28;20476;-58
2023/10/27 06:28:25;;;;;;;2.73;2.27;;;9.40;99.90;;;;;;5016730;28;20910;-59
2023/10/27 06:30:53;;;;;;;2.77;2.10;;;9.50;99.90;;;;;;5014335;28;20475;-59
2023/10/27 06:33:22;;;;;;;2.50;2.07;;;9.40;99.90;;;;;;5014853;28;20496;-59
2023/10/27 06:35:51;;;;;;;3.00;2.17;;;9.40;99.90;;;;;;5014838;28;20464;-59
2023/10/27 06:38:19;;;;;;;2.47;2.03;;;9.40;99.90;;;;;;5003939;28;20567;-59
2023/10/27 06:40:47;;;;;;;2.07;1.73;;;9.50;99.90;;;;;;5010191;28;20490;-59
2023/10/27 06:43:15;;;;;;;2.10;1.70;;;9.40;99.90;;;;;;5012283;28;20479;-59
2023/10/27 06:45:44;;;;;;;2.83;2.17;;;9.40;99.90;;;;;;5007265;28;20471;-59
2023/10/27 06:48:11;;;;;;;2.23;2.03;;;9.50;99.90;;;;;;5015728;28;20578;-59
2023/10/27 06:50:40;;;;;;;2.00;1.80;;;9.50;99.90;;;;;;5004812;28;21080;-59
2023/10/27 06:53:11;;;;;;;2.63;2.43;;;9.50;99.90;;;;;;5008621;28;20475;-59
2023/10/27 06:55:38;;;;;;;3.03;2.33;;;9.40;99.90;;;;;;5013975;28;20471;-59
2023/10/27 06:58:07;;;;;;;2.83;2.13;;;9.40;99.90;;;;;;5018531;28;20467;-59
2023/10/27 07:00:35;;;;;;;3.97;2.30;;;9.50;99.90;;;;;;5001449;28;21264;-58
2023/10/27 07:03:03;;;;;;;3.10;1.90;;;9.50;99.90;;;;;;5008679;28;20503;-59
2023/10/27 07:05:36;;;;;;;3.27;2.10;;;9.50;99.90;;;;;;5011334;28;20501;-59
2023/10/27 07:08:05;;;;;;;3.00;2.27;;;9.50;99.90;;;;;;5001020;28;20529;-58
2023/10/27 07:10:35;;;;;;;3.43;2.07;;;9.50;99.90;;;;;;5006502;28;20490;-60
2023/10/27 07:13:03;;;;;;;2.63;2.10;;;9.50;99.90;;;;;;5016972;28;20471;-59
2023/10/27 07:15:31;;;;;;;3.40;2.67;;;9.50;99.90;;;;;;5012872;28;20910;-59
2023/10/27 07:17:59;;;;;;;4.03;2.50;;;9.50;99.90;;;;;;5011011;28;20471;-59
2023/10/27 07:20:27;;;;;;;3.20;1.87;;;9.50;99.90;;;;;;5007259;28;20571;-60
2023/10/27 07:22:56;;;;;;;3.17;2.20;;;9.50;99.90;;;;;;5013071;28;20518;-59
2023/10/27 07:25:23;;;;;;;2.27;1.97;;;9.50;99.90;;;;;;5008901;28;20477;-58
2023/10/27 07:27:55;;;;;;;2.10;1.90;;;9.50;99.90;;;;;;5012936;28;20506;-59
2023/10/27 07:30:23;;;;;;;2.50;1.80;;;9.50;99.90;;;;;;5008721;28;20578;-59
2023/10/27 07:32:51;;;;;;;2.90;2.10;;;9.50;99.90;;;;;;5013264;28;20854;-60
2023/10/27 07:35:19;;;;;;;2.67;2.17;;;9.60;99.90;;;;;;5017515;28;21005;-59
2023/10/27 07:37:48;;;;;;;2.10;1.70;;;9.60;99.90;;;;;;5015475;28;20574;-59
2023/10/27 07:40:17;;;;;;;2.43;2.03;;;9.60;99.90;;;;;;5011525;28;25954;-59
2023/10/27 07:42:45;;;;;;;2.43;1.67;;;9.60;99.90;;;;;;5014390;28;20878;-59
2023/10/27 07:45:14;;;;;;;4.10;2.10;;;9.60;99.90;;;;;;5005778;28;20589;-60
2023/10/27 07:47:43;;;;;;;2.30;1.60;;;9.60;99.90;;;;;;5013326;28;20523;-61
2023/10/27 07:50:12;;;;;;;1.83;1.73;;;9.60;99.90;;;;;;5004358;28;20487;-60
2023/10/27 07:52:40;;;;;;;2.20;2.00;;;9.60;99.90;;;;;;5017797;28;20913;-61
2023/10/27 07:55:08;;;;;;;2.00;1.80;;;9.60;99.90;;;;;;5010773;28;20531;-61
2023/10/27 07:57:36;;;;;;;2.90;2.10;;;9.60;99.90;;;;;;5002041;28;20535;-61
2023/10/27 08:00:09;;;;;;;1.70;1.60;;;9.60;99.90;;;;;;5012736;28;20669;-61
2023/10/27 08:02:39;;;;;;;2.20;1.50;;;9.70;99.90;;;;;;5014582;28;20917;-60
2023/10/27 08:05:08;;;;;;;1.80;1.67;;;9.60;99.90;;;;;;5012518;28;20499;-61
2023/10/27 08:07:36;;;;;;;2.77;1.70;;;9.70;99.90;;;;;;5012463;28;20495;-61
2023/10/27 08:10:07;;;;;;;2.10;1.60;;;9.60;99.90;;;;;;5016310;28;20574;-60
2023/10/27 08:12:35;;;;;;;2.30;1.80;;;9.60;99.90;;;;;;5014049;28;21087;-61
2023/10/27 08:15:05;;;;;;;2.33;1.70;;;9.70;99.90;;;;;;5009765;28;20568;-61
2023/10/27 08:17:34;;;;;;;2.27;2.03;;;9.70;99.90;;;;;;5016074;28;20533;-61
2023/10/27 08:20:05;;;;;;;2.63;1.77;;;9.70;99.90;;;;;;5022520;28;20494;-59
2023/10/27 08:22:34;;;;;;;3.30;1.70;;;9.70;99.90;;;;;;5024285;28;21219;-61
2023/10/27 08:25:03;;;;;;;3.30;1.60;;;9.70;99.90;;;;;;5020896;28;20479;-61
2023/10/27 08:27:31;;;;;;;3.70;1.93;;;9.80;99.90;;;;;;5017130;28;20495;-61
2023/10/27 08:29:59;;;;;;;2.37;1.77;;;9.80;99.90;;;;;;4997521;28;20498;-61
2023/10/27 08:32:27;;;;;;;1.93;1.60;;;9.80;99.90;;;;;;5006538;28;20471;-59
2023/10/27 08:34:56;;;;;;;2.20;1.40;;;9.80;99.90;;;;;;5011572;28;20557;-58
2023/10/27 08:37:26;;;;;;;3.30;2.03;;;9.80;99.90;;;;;;5014335;28;20468;-60
2023/10/27 08:39:54;;;;;;;2.47;2.27;;;9.80;99.90;;;;;;5007919;28;20573;-60
2023/10/27 08:42:22;;;;;;;2.43;2.03;;;9.90;99.90;;;;;;5006139;28;20488;-60
2023/10/27 08:44:50;;;;;;;2.13;1.80;;;9.90;99.90;;;;;;5002429;28;20472;-59
2023/10/27 08:47:19;;;;;;;2.70;1.77;;;9.90;99.90;;;;;;4999977;28;20495;-60
2023/10/27 08:49:47;;;;;;;2.73;1.80;;;9.90;99.90;;;;;;5008706;28;20487;-59
2023/10/27 08:52:15;;;;;;;3.73;1.87;;;9.90;99.90;;;;;;5007753;28;21060;-59
2023/10/27 08:54:45;;;;;;;2.47;1.60;;;9.90;99.90;;;;;;5006823;28;20475;-58
2023/10/27 08:57:13;;;;;;;1.97;1.70;;;9.90;99.90;;;;;;5003149;28;20475;-59
2023/10/27 08:59:43;;;;;;;2.17;1.97;;;9.80;99.90;;;;;;5006593;28;20879;-59
2023/10/27 09:02:16;;;;;;;2.27;1.80;;;9.80;99.90;;;;;;5014356;28;20496;-60
2023/10/27 09:04:44;;;;;;;2.37;1.70;;;9.80;99.90;;;;;;5009327;28;20478;-60
2023/10/27 09:07:13;;;;;;;2.73;1.57;;;9.80;99.90;;;;;;4999886;28;20522;-58
2023/10/27 09:09:41;;;;;;;1.67;1.57;;;9.80;99.90;;;;;;5005847;28;20491;-58
2023/10/27 09:12:11;;;;;;;1.60;1.47;;;9.80;99.90;;;;;;5007205;28;20907;-59
2023/10/27 09:14:39;;;;;;;1.30;1.20;;;9.80;99.90;;;;;;5011349;28;20936;-59
2023/10/27 09:17:08;;;;;;;1.90;1.23;;;9.80;99.90;;;;;;5003975;28;20554;-59
2023/10/27 09:19:37;;;;;;;1.63;1.40;;;9.80;99.90;;;;;;5005426;28;20571;-59
2023/10/27 09:22:15;;;;;;;1.50;1.40;;;9.80;99.90;;;;;;5004356;28;20593;-59
2023/10/27 09:24:44;;;;;;;1.60;1.50;;;9.80;99.90;;;;;;5008126;28;20495;-59
2023/10/27 09:27:14;;;;;;;4.10;1.40;;;9.90;99.90;;;;;;5007926;28;20472;-59
2023/10/27 09:29:42;;;;;;;1.83;1.70;;;9.90;99.90;;;;;;5007848;28;20519;-59
2023/10/27 09:32:24;;;;;;;2.27;1.77;;;9.90;99.90;;;;;;5002279;28;20638;-59
2023/10/27 09:35:09;;;;;;;2.27;1.50;;;9.90;99.90;;;;;;5010266;28;20486;-59
2023/10/27 09:37:38;;;;;;;1.87;1.60;;;9.90;99.90;;;;;;5006785;28;20480;-58
2023/10/27 09:40:09;;;;;;;2.63;1.60;;;9.90;99.90;;;;;;5007952;28;20597;-58
2023/10/27 09:42:40;;;;;;;1.80;1.70;;;9.90;99.90;;;;;;5016622;28;20977;-59
2023/10/27 09:45:11;;;;;;;2.17;1.93;;;9.90;99.90;;;;;;5001344;28;20559;-59
2023/10/27 09:47:47;;;;;;;2.83;1.83;;;9.90;99.90;;;;;;5003887;28;20494;-59
2023/10/27 09:50:18;;;;;;;2.17;1.90;;;9.90;99.90;;;;;;5005270;28;20782;-59
2023/10/27 09:52:45;;;;;;;2.33;2.10;;;9.90;99.90;;;;;;5008847;28;20464;-59
2023/10/27 09:55:14;;;;;;;2.53;1.60;;;9.90;99.90;;;;;;5007876;28;20483;-58
2023/10/27 09:57:45;;;;;;;2.07;1.70;;;9.90;99.90;;;;;;5005943;28;20483;-59
2023/10/27 10:00:16;;;;;;;2.13;1.83;;;9.90;99.90;;;;;;5004727;28;20494;-59
2023/10/27 10:02:45;;;;;;;1.83;1.70;;;9.90;99.90;;;;;;5004275;28;20476;-59
2023/10/27 10:05:13;;;;;;;3.13;1.80;;;9.90;99.90;;;;;;5007921;28;20482;-59
2023/10/27 10:07:44;;;;;;;3.00;1.87;;;9.90;99.90;;;;;;5011583;28;20535;-60
2023/10/27 10:10:22;;;;;;;1.93;1.70;;;9.90;99.90;;;;;;5007256;28;20491;-59
2023/10/27 10:13:08;;;;;;;1.83;1.60;;;9.90;99.90;;;;;;5002913;28;20985;-60
2023/10/27 10:15:37;;;;;;;2.00;1.80;;;9.90;99.90;;;;;;5015456;28;20989;-60
2023/10/27 10:18:06;;;;;;;2.40;1.73;;;9.90;99.90;;;;;;5004233;28;21245;-59
2023/10/27 10:20:57;;;;;;;2.33;1.97;;;9.90;99.90;;;;;;5012600;28;20502;-60
2023/10/27 10:23:41;;;;;;;2.30;1.53;;;9.90;99.90;;;;;;5013316;28;20976;-59
2023/10/27 10:26:09;;;;;;;1.83;1.73;;;9.90;99.90;;;;;;5008583;28;21067;-58
2023/10/27 10:28:40;;;;;;;2.30;1.80;;;9.90;99.90;;;;;;4994866;28;21133;-59
2023/10/27 10:31:25;;;;;;;3.30;2.10;;;9.90;99.90;;;;;;5000106;28;20498;-58
2023/10/27 10:34:11;;;;;;;3.23;2.30;;;9.90;99.90;;;;;;5002807;28;20479;-59
2023/10/27 10:36:41;;;;;;;2.30;2.10;;;9.90;99.90;;;;;;5010298;28;20485;-59
2023/10/27 10:39:10;;;;;;;1.50;1.40;;;9.90;99.90;;;;;;5013386;28;20569;-59
2023/10/27 10:42:00;;;;;;;2.03;1.87;;;9.90;99.90;;;;;;5000303;28;20524;-60
2023/10/27 10:44:31;;;;;;;1.60;1.50;;;9.90;99.90;;;;;;4997555;28;21233;-58
2023/10/27 10:47:06;;;;;;;2.47;2.00;;;9.90;99.90;;;;;;5003059;28;23510;-59
2023/10/27 10:49:36;;;;;;;4.40;2.33;;;10.00;99.90;;;;;;4999368;28;20894;-59
2023/10/27 10:52:05;;;;;;;2.10;1.90;;;10.00;99.90;;;;;;5007117;28;21051;-60
2023/10/27 10:54:35;;;;;;;2.20;2.00;;;10.10;99.90;;;;;;5002454;28;20599;-59
2023/10/27 10:57:08;;;;;;;2.07;1.87;;;10.10;99.90;;;;;;5007281;28;20470;-59
2023/10/27 10:59:38;;;;;;;2.20;1.90;;;10.10;99.90;;;;;;5003827;28;20495;-59
2023/10/27 11:02:08;;;;;;;2.83;2.63;;;10.10;99.90;;;;;;5008945;28;20990;-59
2023/10/27 11:04:36;;;;;;;3.70;2.30;;;10.10;99.90;;;;;;5009851;28;20481;-60
2023/10/27 11:07:07;;;;;;;2.90;2.60;;;10.10;99.90;;;;;;5003950;28;20468;-59
2023/10/27 11:09:35;;;;;;;2.57;2.37;;;10.10;99.90;;;;;;5013178;28;20510;-60
2023/10/27 11:12:05;;;;;;;3.17;2.80;;;10.10;99.90;;;;;;5010174;28;20494;-58
2023/10/27 11:14:43;;;;;;;3.43;2.50;;;10.10;99.90;;;;;;5007378;28;20582;-59
2023/10/27 11:17:12;;;;;;;3.03;2.73;;;10.10;99.90;;;;;;5003278;28;21008;-60
2023/10/27 11:19:53;;;;;;;3.03;2.77;;;10.10;99.90;;;;;;5000715;28;20526;-59
2023/10/27 11:22:27;;;;;;;2.90;2.70;;;10.20;99.90;;;;;;4997982;28;20492;-59
2023/10/27 11:24:55;;;;;;;5.03;2.97;;;10.20;99.90;;;;;;4997648;28;23539;-59
2023/10/27 11:27:27;;;;;;;5.10;2.60;;;10.20;99.90;;;;;;5007318;28;20766;-59
2023/10/27 11:30:04;;;;;;;3.67;2.90;;;10.20;99.90;;;;;;4994874;28;20504;-59
2023/10/27 11:32:32;;;;;;;3.30;2.63;;;10.30;99.90;;;;;;5007360;28;21016;-59
2023/10/27 11:35:00;;;;;;;3.03;2.63;;;10.30;99.90;;;;;;5000349;28;20910;-59
2023/10/27 11:37:29;;;;;;;3.10;2.80;;;10.30;99.90;;;;;;5011095;28;20964;-59
2023/10/27 11:40:11;;;;;;;2.57;2.37;;;10.40;99.90;;;;;;5012637;28;20491;-59
2023/10/27 11:42:39;;;;;;;3.37;2.50;;;10.40;99.90;;;;;;5009125;28;20483;-58
2023/10/27 11:45:09;;;;;;;3.30;3.03;;;10.40;99.90;;;;;;5006598;28;20474;-58
2023/10/27 11:47:37;;;;;;;4.77;2.93;;;10.40;99.90;;;;;;5013247;28;20467;-59
2023/10/27 11:50:06;;;;;;;3.57;2.60;;;10.40;99.90;;;;;;5008707;28;21409;-59
2023/10/27 11:52:35;;;;;;;2.77;2.47;;;10.40;99.90;;;;;;5005596;28;20915;-59
2023/10/27 11:55:05;;;;;;;3.13;2.70;;;10.40;99.90;;;;;;5004749;28;20498;-58
2023/10/27 11:57:33;;;;;;;2.93;2.60;;;10.50;99.90;;;;;;5009541;28;20496;-59
2023/10/27 12:00:01;;;;;;;2.97;2.40;;;10.50;99.90;;;;;;5009848;28;20494;-59
2023/10/27 12:02:30;;;;;;;2.63;2.27;;;10.50;99.90;;;;;;5014042;28;20483;-59
2023/10/27 12:04:58;;;;;;;2.77;2.47;;;10.50;99.90;;;;;;5000795;28;20506;-63
2023/10/27 12:07:30;;;;;;;2.40;2.20;;;10.50;99.90;;;;;;4994950;28;20991;-60
2023/10/27 12:09:58;;;;;;;2.63;1.80;;;10.50;99.90;;;;;;5013723;28;20498;-59
2023/10/27 12:12:26;;;;;;;3.30;2.07;;;10.50;99.90;;;;;;5004007;28;20494;-59
2023/10/27 12:14:54;;;;;;;3.20;2.30;;;10.50;99.90;;;;;;5007400;28;20493;-59
2023/10/27 12:17:23;;;;;;;2.90;2.17;;;10.50;99.90;;;;;;5005965;28;20677;-60
2023/10/27 12:19:53;;;;;;;2.17;1.97;;;10.60;99.90;;;;;;5005540;28;20483;-59
2023/10/27 12:22:21;;;;;;;2.30;2.10;;;10.60;99.90;;;;;;5000704;28;20487;-59
2023/10/27 12:24:49;;;;;;;2.67;2.47;;;10.60;99.90;;;;;;4995249;28;21114;-58
2023/10/27 12:27:18;;;;;;;2.30;2.10;;;10.60;99.90;;;;;;4998616;28;20467;-59
2023/10/27 12:29:46;;;;;;;2.27;2.03;;;10.60;99.90;;;;;;5010882;28;20503;-58
2023/10/27 12:32:14;;;;;;;2.70;2.23;;;10.60;99.90;;;;;;5005509;28;20492;-59
2023/10/27 12:34:42;;;;;;;2.40;2.20;;;10.70;99.90;;;;;;5007922;28;20914;-60
2023/10/27 12:37:11;;;;;;;2.40;2.20;;;10.60;99.90;;;;;;5008837;28;20477;-59
2023/10/27 12:39:42;;;;;;;2.47;2.27;;;10.70;99.90;;;;;;5014276;28;20689;-58
2023/10/27 12:42:10;;;;;;;2.63;2.43;;;10.60;99.90;;;;;;4997402;28;20483;-58
2023/10/27 12:44:38;;;;;;;2.80;2.20;;;10.60;99.90;;;;;;5002843;28;20475;-60
2023/10/27 12:47:07;;;;;;;3.10;2.50;;;10.60;99.90;;;;;;5007505;28;20760;-63
2023/10/27 12:49:38;;;;;;;2.43;2.23;;;10.60;99.90;;;;;;5010230;28;20590;-62
2023/10/27 12:52:07;;;;;;;2.83;2.60;;;10.60;99.90;;;;;;4998400;28;20590;-62
2023/10/27 12:54:37;;;;;;;2.90;2.60;;;10.60;99.90;;;;;;5006971;28;20977;-63
2023/10/27 12:57:05;;;;;;;2.67;2.37;;;10.60;99.90;;;;;;5011503;28;20936;-62
2023/10/27 12:59:33;;;;;;;2.57;2.37;;;10.60;99.90;;;;;;5006720;28;20497;-63
2023/10/27 13:02:01;;;;;;;3.70;2.70;;;10.60;99.90;;;;;;5006525;28;20578;-63
2023/10/27 13:04:29;;;;;;;3.30;2.70;;;10.60;99.90;;;;;;5016394;28;20566;-62